sensor_id;sensor_type;location;lat;lon;timestamp;temperature;humidity
52381;DHT22;38310;52.796;6.942;2022-12-29T00:02:00;10.10;99.90
52381;DHT22;38310;52.796;6.942;2022-12-29T00:04:26;10.10;99.90
52381;DHT22;38310;52.796;6.942;2022-12-29T00:06:52;10.10;99.90
52381;DHT22;38310;52.796;6.942;2022-12-29T00:09:19;10.20;99.90
52381;DHT22;38310;52.796;6.942;2022-12-29T00:11:44;10.30;99.90
52381;DHT22;38310;52.796;6.942;2022-12-29T00:14:11;10.30;99.90
52381;DHT22;38310;52.796;6.942;2022-12-29T00:16:56;10.30;99.90
52381;DHT22;38310;52.796;6.942;2022-12-29T00:19:22;10.40;99.90
52381;DHT22;38310;52.796;6.942;2022-12-29T00:22:12;10.30;99.90
52381;DHT22;38310;52.796;6.942;2022-12-29T00:24:57;10.30;99.90
52381;DHT22;38310;52.796;6.942;2022-12-29T00:27:26;10.40;99.90
52381;DHT22;38310;52.796;6.942;2022-12-29T00:30:14;10.40;99.90
52381;DHT22;38310;52.796;6.942;2022-12-29T00:32:58;10.40;99.90
52381;DHT22;38310;52.796;6.942;2022-12-29T00:35:51;9.30;99.90
52381;DHT22;38310;52.796;6.942;2022-12-29T00:38:18;10.30;99.90
52381;DHT22;38310;52.796;6.942;2022-12-29T00:41:02;10.40;99.90
52381;DHT22;38310;52.796;6.942;2022-12-29T00:43:47;10.40;99.90
52381;DHT22;38310;52.796;6.942;2022-12-29T00:46:39;10.40;99.90
52381;DHT22;38310;52.796;6.942;2022-12-29T00:49:06;10.40;99.90
52381;DHT22;38310;52.796;6.942;2022-12-29T00:51:51;10.40;99.90
52381;DHT22;38310;52.796;6.942;2022-12-29T00:54:17;10.40;99.90
52381;DHT22;38310;52.796;6.942;2022-12-29T00:56:45;10.50;99.90
52381;DHT22;38310;52.796;6.942;2022-12-29T00:59:11;10.00;99.90
52381;DHT22;38310;52.796;6.942;2022-12-29T01:01:38;10.50;99.90
52381;DHT22;38310;52.796;6.942;2022-12-29T01:04:04;10.50;99.90
52381;DHT22;38310;52.796;6.942;2022-12-29T01:06:31;10.50;99.90
52381;DHT22;38310;52.796;6.942;2022-12-29T01:08:57;10.50;99.90
52381;DHT22;38310;52.796;6.942;2022-12-29T01:11:41;10.50;99.90
52381;DHT22;38310;52.796;6.942;2022-12-29T01:14:07;10.70;99.90
52381;DHT22;38310;52.796;6.942;2022-12-29T01:16:33;10.70;99.90
52381;DHT22;38310;52.796;6.942;2022-12-29T01:18:59;10.70;99.90
52381;DHT22;38310;52.796;6.942;2022-12-29T01:21:25;10.40;99.90
52381;DHT22;38310;52.796;6.942;2022-12-29T01:23:51;10.70;99.90
52381;DHT22;38310;52.796;6.942;2022-12-29T01:26:17;10.70;99.90
52381;DHT22;38310;52.796;6.942;2022-12-29T01:28:44;10.70;99.90
52381;DHT22;38310;52.796;6.942;2022-12-29T01:31:11;10.70;99.90
52381;DHT22;38310;52.796;6.942;2022-12-29T01:33:37;10.70;99.90
52381;DHT22;38310;52.796;6.942;2022-12-29T01:36:08;10.70;99.90
52381;DHT22;38310;52.796;6.942;2022-12-29T01:38:35;10.80;99.90
52381;DHT22;38310;52.796;6.942;2022-12-29T01:41:01;10.90;99.90
52381;DHT22;38310;52.796;6.942;2022-12-29T01:43:50;10.80;99.90
52381;DHT22;38310;52.796;6.942;2022-12-29T01:46:41;10.80;99.90
52381;DHT22;38310;52.796;6.942;2022-12-29T01:51:50;10.90;99.90
52381;DHT22;38310;52.796;6.942;2022-12-29T01:54:26;10.90;99.90
52381;DHT22;38310;52.796;6.942;2022-12-29T01:56:55;10.90;99.90
52381;DHT22;38310;52.796;6.942;2022-12-29T01:59:26;10.90;99.90
52381;DHT22;38310;52.796;6.942;2022-12-29T02:01:54;10.90;99.90
52381;DHT22;38310;52.796;6.942;2022-12-29T02:04:20;10.90;99.90
52381;DHT22;38310;52.796;6.942;2022-12-29T02:07:01;10.90;99.90
52381;DHT22;38310;52.796;6.942;2022-12-29T02:09:27;10.90;99.90
52381;DHT22;38310;52.796;6.942;2022-12-29T02:11:53;10.90;99.90
52381;DHT22;38310;52.796;6.942;2022-12-29T02:14:19;10.90;99.90
52381;DHT22;38310;52.796;6.942;2022-12-29T02:17:07;10.90;99.90
52381;DHT22;38310;52.796;6.942;2022-12-29T02:27:55;10.80;99.90
52381;DHT22;38310;52.796;6.942;2022-12-29T02:30:46;10.80;99.90
52381;DHT22;38310;52.796;6.942;2022-12-29T02:36:39;10.80;99.90
52381;DHT22;38310;52.796;6.942;2022-12-29T02:41:51;10.80;99.90
52381;DHT22;38310;52.796;6.942;2022-12-29T02:47:03;10.70;99.90
52381;DHT22;38310;52.796;6.942;2022-12-29T02:49:33;10.60;99.90
52381;DHT22;38310;52.796;6.942;2022-12-29T02:52:17;10.50;99.90
52381;DHT22;38310;52.796;6.942;2022-12-29T02:54:44;10.40;99.90
52381;DHT22;38310;52.796;6.942;2022-12-29T02:59:55;10.30;99.90
52381;DHT22;38310;52.796;6.942;2022-12-29T03:05:38;10.20;99.90
52381;DHT22;38310;52.796;6.942;2022-12-29T03:10:52;10.10;99.90
52381;DHT22;38310;52.796;6.942;2022-12-29T03:13:39;10.10;99.90
52381;DHT22;38310;52.796;6.942;2022-12-29T03:19:19;10.10;99.90
52381;DHT22;38310;52.796;6.942;2022-12-29T03:21:59;10.00;99.90
52381;DHT22;38310;52.796;6.942;2022-12-29T03:24:59;10.10;99.90
52381;DHT22;38310;52.796;6.942;2022-12-29T03:27:33;10.10;99.90
52381;DHT22;38310;52.796;6.942;2022-12-29T03:30:02;10.10;99.90
52381;DHT22;38310;52.796;6.942;2022-12-29T03:32:39;10.10;99.90
52381;DHT22;38310;52.796;6.942;2022-12-29T03:35:08;10.10;99.90
52381;DHT22;38310;52.796;6.942;2022-12-29T03:37:39;10.00;99.90
52381;DHT22;38310;52.796;6.942;2022-12-29T03:40:06;10.10;99.90
52381;DHT22;38310;52.796;6.942;2022-12-29T03:42:33;10.00;99.90
52381;DHT22;38310;52.796;6.942;2022-12-29T03:45:00;10.00;99.90
52381;DHT22;38310;52.796;6.942;2022-12-29T03:47:26;10.10;99.90
52381;DHT22;38310;52.796;6.942;2022-12-29T03:49:52;10.10;99.90
52381;DHT22;38310;52.796;6.942;2022-12-29T03:52:18;10.10;99.90
52381;DHT22;38310;52.796;6.942;2022-12-29T03:54:44;10.10;99.90
52381;DHT22;38310;52.796;6.942;2022-12-29T03:57:10;10.20;99.90
52381;DHT22;38310;52.796;6.942;2022-12-29T03:59:36;10.20;99.90
52381;DHT22;38310;52.796;6.942;2022-12-29T04:02:02;10.10;99.90
52381;DHT22;38310;52.796;6.942;2022-12-29T04:04:28;10.20;99.90
52381;DHT22;38310;52.796;6.942;2022-12-29T04:06:53;10.30;99.90
52381;DHT22;38310;52.796;6.942;2022-12-29T04:09:19;10.30;99.90
52381;DHT22;38310;52.796;6.942;2022-12-29T04:11:45;10.30;99.90
52381;DHT22;38310;52.796;6.942;2022-12-29T04:14:11;10.40;99.90
52381;DHT22;38310;52.796;6.942;2022-12-29T04:16:36;10.40;99.90
52381;DHT22;38310;52.796;6.942;2022-12-29T04:19:05;10.50;99.90
52381;DHT22;38310;52.796;6.942;2022-12-29T04:21:31;10.60;99.90
52381;DHT22;38310;52.796;6.942;2022-12-29T04:23:56;10.60;99.90
52381;DHT22;38310;52.796;6.942;2022-12-29T04:26:22;10.60;99.90
52381;DHT22;38310;52.796;6.942;2022-12-29T04:28:48;10.50;99.90
52381;DHT22;38310;52.796;6.942;2022-12-29T04:31:13;10.50;99.90
52381;DHT22;38310;52.796;6.942;2022-12-29T04:33:39;10.70;99.90
52381;DHT22;38310;52.796;6.942;2022-12-29T04:36:05;10.60;99.90
52381;DHT22;38310;52.796;6.942;2022-12-29T04:38:31;10.50;99.90
52381;DHT22;38310;52.796;6.942;2022-12-29T04:40:59;10.60;99.90
52381;DHT22;38310;52.796;6.942;2022-12-29T04:43:25;10.70;99.90
52381;DHT22;38310;52.796;6.942;2022-12-29T04:45:51;10.70;99.90
52381;DHT22;38310;52.796;6.942;2022-12-29T04:48:17;10.60;99.90
52381;DHT22;38310;52.796;6.942;2022-12-29T04:50:43;10.50;99.90
52381;DHT22;38310;52.796;6.942;2022-12-29T04:53:09;10.60;99.90
52381;DHT22;38310;52.796;6.942;2022-12-29T04:55:34;10.60;99.90
52381;DHT22;38310;52.796;6.942;2022-12-29T04:58:00;10.60;99.90
52381;DHT22;38310;52.796;6.942;2022-12-29T05:00:26;10.50;99.90
52381;DHT22;38310;52.796;6.942;2022-12-29T05:02:52;10.50;99.90
52381;DHT22;38310;52.796;6.942;2022-12-29T05:05:18;10.50;99.90
52381;DHT22;38310;52.796;6.942;2022-12-29T05:07:44;10.50;99.90
52381;DHT22;38310;52.796;6.942;2022-12-29T05:10:10;10.40;99.90
52381;DHT22;38310;52.796;6.942;2022-12-29T05:12:37;10.30;99.90
52381;DHT22;38310;52.796;6.942;2022-12-29T05:15:04;10.40;99.90
52381;DHT22;38310;52.796;6.942;2022-12-29T05:17:30;10.30;99.90
52381;DHT22;38310;52.796;6.942;2022-12-29T05:19:56;10.50;99.90
52381;DHT22;38310;52.796;6.942;2022-12-29T05:22:21;10.50;99.90
52381;DHT22;38310;52.796;6.942;2022-12-29T05:24:47;10.40;99.90
52381;DHT22;38310;52.796;6.942;2022-12-29T05:27:13;10.40;99.90
52381;DHT22;38310;52.796;6.942;2022-12-29T05:29:39;10.40;99.90
52381;DHT22;38310;52.796;6.942;2022-12-29T05:32:05;10.50;99.90
52381;DHT22;38310;52.796;6.942;2022-12-29T05:34:30;10.50;99.90
52381;DHT22;38310;52.796;6.942;2022-12-29T05:36:56;10.50;99.90
52381;DHT22;38310;52.796;6.942;2022-12-29T05:39:22;10.40;99.90
52381;DHT22;38310;52.796;6.942;2022-12-29T05:41:48;10.40;99.90
52381;DHT22;38310;52.796;6.942;2022-12-29T05:44:14;10.40;99.90
52381;DHT22;38310;52.796;6.942;2022-12-29T05:46:40;10.40;99.90
52381;DHT22;38310;52.796;6.942;2022-12-29T05:49:06;10.40;99.90
52381;DHT22;38310;52.796;6.942;2022-12-29T05:51:32;10.40;99.90
52381;DHT22;38310;52.796;6.942;2022-12-29T05:53:57;10.30;99.90
52381;DHT22;38310;52.796;6.942;2022-12-29T05:56:23;10.40;99.90
52381;DHT22;38310;52.796;6.942;2022-12-29T05:58:49;10.40;99.90
52381;DHT22;38310;52.796;6.942;2022-12-29T06:01:14;10.40;99.90
52381;DHT22;38310;52.796;6.942;2022-12-29T06:03:40;10.40;99.90
52381;DHT22;38310;52.796;6.942;2022-12-29T06:06:06;10.30;99.90
52381;DHT22;38310;52.796;6.942;2022-12-29T06:08:32;10.30;99.90
52381;DHT22;38310;52.796;6.942;2022-12-29T06:10:58;10.30;99.90
52381;DHT22;38310;52.796;6.942;2022-12-29T06:13:24;10.30;99.90
52381;DHT22;38310;52.796;6.942;2022-12-29T06:15:50;10.40;99.90
52381;DHT22;38310;52.796;6.942;2022-12-29T06:18:16;10.50;99.90
52381;DHT22;38310;52.796;6.942;2022-12-29T06:20:42;10.40;99.90
52381;DHT22;38310;52.796;6.942;2022-12-29T06:23:08;10.40;99.90
52381;DHT22;38310;52.796;6.942;2022-12-29T06:25:33;10.40;99.90
52381;DHT22;38310;52.796;6.942;2022-12-29T06:28:03;10.40;99.90
52381;DHT22;38310;52.796;6.942;2022-12-29T06:30:29;10.40;99.90
52381;DHT22;38310;52.796;6.942;2022-12-29T06:32:55;10.40;99.90
52381;DHT22;38310;52.796;6.942;2022-12-29T06:35:21;10.30;99.90
52381;DHT22;38310;52.796;6.942;2022-12-29T06:37:48;10.30;99.90
52381;DHT22;38310;52.796;6.942;2022-12-29T06:40:14;10.40;99.90
52381;DHT22;38310;52.796;6.942;2022-12-29T06:42:40;10.40;99.90
52381;DHT22;38310;52.796;6.942;2022-12-29T06:45:06;10.30;99.90
52381;DHT22;38310;52.796;6.942;2022-12-29T06:47:33;10.30;99.90
52381;DHT22;38310;52.796;6.942;2022-12-29T06:50:00;10.30;99.90
52381;DHT22;38310;52.796;6.942;2022-12-29T06:52:25;10.20;99.90
52381;DHT22;38310;52.796;6.942;2022-12-29T06:54:51;10.20;99.90
52381;DHT22;38310;52.796;6.942;2022-12-29T06:57:17;10.10;99.90
52381;DHT22;38310;52.796;6.942;2022-12-29T06:59:43;10.20;99.90
52381;DHT22;38310;52.796;6.942;2022-12-29T07:02:10;10.20;99.90
52381;DHT22;38310;52.796;6.942;2022-12-29T07:04:36;10.20;99.90
52381;DHT22;38310;52.796;6.942;2022-12-29T07:07:01;10.20;99.90
52381;DHT22;38310;52.796;6.942;2022-12-29T07:09:27;10.10;99.90
52381;DHT22;38310;52.796;6.942;2022-12-29T07:11:53;10.20;99.90
52381;DHT22;38310;52.796;6.942;2022-12-29T07:14:19;10.10;99.90
52381;DHT22;38310;52.796;6.942;2022-12-29T07:16:44;10.20;99.90
52381;DHT22;38310;52.796;6.942;2022-12-29T07:19:10;10.10;99.90
52381;DHT22;38310;52.796;6.942;2022-12-29T07:21:36;10.10;99.90
52381;DHT22;38310;52.796;6.942;2022-12-29T07:24:01;10.10;99.90
52381;DHT22;38310;52.796;6.942;2022-12-29T07:26:27;10.00;99.90
52381;DHT22;38310;52.796;6.942;2022-12-29T07:28:53;10.00;99.90
52381;DHT22;38310;52.796;6.942;2022-12-29T07:31:21;9.90;99.90
52381;DHT22;38310;52.796;6.942;2022-12-29T07:33:48;9.90;99.90
52381;DHT22;38310;52.796;6.942;2022-12-29T07:36:15;9.80;99.90
52381;DHT22;38310;52.796;6.942;2022-12-29T07:38:41;9.90;99.90
52381;DHT22;38310;52.796;6.942;2022-12-29T07:41:08;9.90;99.90
52381;DHT22;38310;52.796;6.942;2022-12-29T07:43:34;9.80;99.90
52381;DHT22;38310;52.796;6.942;2022-12-29T07:46:00;9.90;99.90
52381;DHT22;38310;52.796;6.942;2022-12-29T07:48:25;9.80;99.90
52381;DHT22;38310;52.796;6.942;2022-12-29T07:50:52;9.80;99.90
52381;DHT22;38310;52.796;6.942;2022-12-29T07:53:18;9.80;99.90
52381;DHT22;38310;52.796;6.942;2022-12-29T07:55:43;9.80;99.90
52381;DHT22;38310;52.796;6.942;2022-12-29T07:58:09;9.80;99.90
52381;DHT22;38310;52.796;6.942;2022-12-29T08:00:35;9.80;99.90
52381;DHT22;38310;52.796;6.942;2022-12-29T08:03:01;9.80;99.90
52381;DHT22;38310;52.796;6.942;2022-12-29T08:05:27;9.80;99.90
52381;DHT22;38310;52.796;6.942;2022-12-29T08:07:52;9.80;99.90
52381;DHT22;38310;52.796;6.942;2022-12-29T08:10:18;9.80;99.90
52381;DHT22;38310;52.796;6.942;2022-12-29T08:12:44;9.90;99.90
52381;DHT22;38310;52.796;6.942;2022-12-29T08:15:11;9.90;99.90
52381;DHT22;38310;52.796;6.942;2022-12-29T08:17:37;9.90;99.90
52381;DHT22;38310;52.796;6.942;2022-12-29T08:20:03;9.80;99.90
52381;DHT22;38310;52.796;6.942;2022-12-29T08:22:30;9.70;99.90
52381;DHT22;38310;52.796;6.942;2022-12-29T08:24:55;9.70;99.90
52381;DHT22;38310;52.796;6.942;2022-12-29T08:27:21;9.80;99.90
52381;DHT22;38310;52.796;6.942;2022-12-29T08:29:47;9.70;99.90
52381;DHT22;38310;52.796;6.942;2022-12-29T08:32:13;9.70;99.90
52381;DHT22;38310;52.796;6.942;2022-12-29T08:34:39;9.70;99.90
52381;DHT22;38310;52.796;6.942;2022-12-29T08:37:05;9.70;99.90
52381;DHT22;38310;52.796;6.942;2022-12-29T08:39:30;9.70;99.90
52381;DHT22;38310;52.796;6.942;2022-12-29T08:41:56;9.70;99.90
52381;DHT22;38310;52.796;6.942;2022-12-29T08:44:22;9.70;99.90
52381;DHT22;38310;52.796;6.942;2022-12-29T08:46:48;9.70;99.90
52381;DHT22;38310;52.796;6.942;2022-12-29T08:49:13;9.80;99.90
52381;DHT22;38310;52.796;6.942;2022-12-29T08:51:39;9.80;99.90
52381;DHT22;38310;52.796;6.942;2022-12-29T08:54:05;9.70;99.90
52381;DHT22;38310;52.796;6.942;2022-12-29T08:56:31;9.70;99.90
52381;DHT22;38310;52.796;6.942;2022-12-29T08:58:57;9.70;99.90
52381;DHT22;38310;52.796;6.942;2022-12-29T09:01:23;9.80;99.90
52381;DHT22;38310;52.796;6.942;2022-12-29T09:03:49;9.90;99.90
52381;DHT22;38310;52.796;6.942;2022-12-29T09:06:16;9.70;99.90
52381;DHT22;38310;52.796;6.942;2022-12-29T09:08:43;9.70;99.90
52381;DHT22;38310;52.796;6.942;2022-12-29T09:11:21;9.70;99.90
52381;DHT22;38310;52.796;6.942;2022-12-29T09:13:47;9.70;99.90
52381;DHT22;38310;52.796;6.942;2022-12-29T09:16:14;9.70;99.90
52381;DHT22;38310;52.796;6.942;2022-12-29T09:18:40;9.70;99.90
52381;DHT22;38310;52.796;6.942;2022-12-29T09:21:06;9.80;99.90
52381;DHT22;38310;52.796;6.942;2022-12-29T09:23:33;9.80;99.90
52381;DHT22;38310;52.796;6.942;2022-12-29T09:25:59;9.80;99.90
52381;DHT22;38310;52.796;6.942;2022-12-29T09:28:25;9.70;99.90
52381;DHT22;38310;52.796;6.942;2022-12-29T09:30:51;9.70;99.90
52381;DHT22;38310;52.796;6.942;2022-12-29T09:33:17;9.70;99.90
52381;DHT22;38310;52.796;6.942;2022-12-29T09:35:51;9.60;99.90
52381;DHT22;38310;52.796;6.942;2022-12-29T09:38:17;9.50;99.90
52381;DHT22;38310;52.796;6.942;2022-12-29T09:40:50;9.40;99.90
52381;DHT22;38310;52.796;6.942;2022-12-29T09:46:27;9.30;99.90
52381;DHT22;38310;52.796;6.942;2022-12-29T09:51:25;9.30;99.90
52381;DHT22;38310;52.796;6.942;2022-12-29T09:54:13;9.30;99.90
52381;DHT22;38310;52.796;6.942;2022-12-29T09:56:45;9.30;99.90
52381;DHT22;38310;52.796;6.942;2022-12-29T09:59:18;9.30;99.90
52381;DHT22;38310;52.796;6.942;2022-12-29T10:01:53;9.40;99.90
52381;DHT22;38310;52.796;6.942;2022-12-29T10:04:22;9.40;99.90
52381;DHT22;38310;52.796;6.942;2022-12-29T10:06:58;9.40;99.90
52381;DHT22;38310;52.796;6.942;2022-12-29T10:09:48;9.40;99.90
52381;DHT22;38310;52.796;6.942;2022-12-29T10:18:33;9.50;99.90
52381;DHT22;38310;52.796;6.942;2022-12-29T10:21:29;9.70;99.90
52381;DHT22;38310;52.796;6.942;2022-12-29T10:23:59;9.80;99.90
52381;DHT22;38310;52.796;6.942;2022-12-29T10:26:30;9.90;99.90
52381;DHT22;38310;52.796;6.942;2022-12-29T10:29:22;9.90;99.90
52381;DHT22;38310;52.796;6.942;2022-12-29T10:32:03;9.90;99.90
52381;DHT22;38310;52.796;6.942;2022-12-29T10:34:36;11.00;99.90
52381;DHT22;38310;52.796;6.942;2022-12-29T10:37:12;9.90;99.90
52381;DHT22;38310;52.796;6.942;2022-12-29T10:39:48;9.90;99.90
52381;DHT22;38310;52.796;6.942;2022-12-29T10:42:26;9.90;99.90
52381;DHT22;38310;52.796;6.942;2022-12-29T10:44:54;9.90;99.90
52381;DHT22;38310;52.796;6.942;2022-12-29T10:47:26;9.90;99.90
52381;DHT22;38310;52.796;6.942;2022-12-29T10:49:54;9.80;99.90
52381;DHT22;38310;52.796;6.942;2022-12-29T10:52:21;9.80;99.90
52381;DHT22;38310;52.796;6.942;2022-12-29T10:55:02;9.80;99.90
52381;DHT22;38310;52.796;6.942;2022-12-29T10:57:44;9.70;99.90
52381;DHT22;38310;52.796;6.942;2022-12-29T11:00:21;9.60;99.90
52381;DHT22;38310;52.796;6.942;2022-12-29T11:06:01;9.50;99.90
52381;DHT22;38310;52.796;6.942;2022-12-29T11:08:33;9.50;99.90
52381;DHT22;38310;52.796;6.942;2022-12-29T11:11:03;9.50;99.90
52381;DHT22;38310;52.796;6.942;2022-12-29T11:13:32;9.50;99.90
52381;DHT22;38310;52.796;6.942;2022-12-29T11:15:59;9.50;99.90
52381;DHT22;38310;52.796;6.942;2022-12-29T11:18:36;9.50;99.90
52381;DHT22;38310;52.796;6.942;2022-12-29T11:21:06;9.40;99.90
52381;DHT22;38310;52.796;6.942;2022-12-29T11:23:40;9.40;99.90
52381;DHT22;38310;52.796;6.942;2022-12-29T11:26:23;9.30;99.90
52381;DHT22;38310;52.796;6.942;2022-12-29T11:31:44;9.30;99.90
52381;DHT22;38310;52.796;6.942;2022-12-29T11:34:21;9.20;99.90
52381;DHT22;38310;52.796;6.942;2022-12-29T11:36:48;9.10;99.90
52381;DHT22;38310;52.796;6.942;2022-12-29T11:41:55;9.10;99.90
52381;DHT22;38310;52.796;6.942;2022-12-29T11:44:21;9.10;99.90
52381;DHT22;38310;52.796;6.942;2022-12-29T11:46:49;9.10;99.90
52381;DHT22;38310;52.796;6.942;2022-12-29T11:49:25;9.10;99.90
52381;DHT22;38310;52.796;6.942;2022-12-29T11:51:53;9.10;99.90
52381;DHT22;38310;52.796;6.942;2022-12-29T11:54:28;9.10;99.90
52381;DHT22;38310;52.796;6.942;2022-12-29T11:56:55;9.10;99.90
52381;DHT22;38310;52.796;6.942;2022-12-29T12:04:45;9.10;99.90
52381;DHT22;38310;52.796;6.942;2022-12-29T12:07:45;9.10;99.90
52381;DHT22;38310;52.796;6.942;2022-12-29T12:13:25;9.20;99.90
52381;DHT22;38310;52.796;6.942;2022-12-29T12:15:59;9.30;99.90
52381;DHT22;38310;52.796;6.942;2022-12-29T12:21:25;9.50;99.90
52381;DHT22;38310;52.796;6.942;2022-12-29T12:24:07;9.60;99.90
52381;DHT22;38310;52.796;6.942;2022-12-29T12:29:46;9.70;99.90
52381;DHT22;38310;52.796;6.942;2022-12-29T12:33:05;9.80;99.90
52381;DHT22;38310;52.796;6.942;2022-12-29T12:35:23;9.80;99.90
52381;DHT22;38310;52.796;6.942;2022-12-29T12:40:40;9.90;99.90
52381;DHT22;38310;52.796;6.942;2022-12-29T12:43:35;9.80;99.90
52381;DHT22;38310;52.796;6.942;2022-12-29T12:49:20;9.60;99.90
52381;DHT22;38310;52.796;6.942;2022-12-29T13:00:19;9.10;99.90
52381;DHT22;38310;52.796;6.942;2022-12-29T13:03:12;8.90;99.90
52381;DHT22;38310;52.796;6.942;2022-12-29T13:08:45;8.70;99.90
52381;DHT22;38310;52.796;6.942;2022-12-29T13:19:30;8.80;99.90
52381;DHT22;38310;52.796;6.942;2022-12-29T13:22:25;8.90;99.90
52381;DHT22;38310;52.796;6.942;2022-12-29T13:38:14;9.00;99.90
52381;DHT22;38310;52.796;6.942;2022-12-29T13:40:45;9.00;99.90
52381;DHT22;38310;52.796;6.942;2022-12-29T13:43:14;9.00;99.90
52381;DHT22;38310;52.796;6.942;2022-12-29T13:45:43;9.00;99.90
52381;DHT22;38310;52.796;6.942;2022-12-29T13:48:17;9.10;99.90
52381;DHT22;38310;52.796;6.942;2022-12-29T13:50:48;9.10;99.90
52381;DHT22;38310;52.796;6.942;2022-12-29T13:56:03;9.10;99.90
52381;DHT22;38310;52.796;6.942;2022-12-29T13:58:37;9.10;99.90
52381;DHT22;38310;52.796;6.942;2022-12-29T14:03:55;9.00;99.90
52381;DHT22;38310;52.796;6.942;2022-12-29T14:06:32;9.00;99.90
52381;DHT22;38310;52.796;6.942;2022-12-29T14:09:03;8.90;99.90
52381;DHT22;38310;52.796;6.942;2022-12-29T14:11:38;8.90;99.90
52381;DHT22;38310;52.796;6.942;2022-12-29T14:14:13;8.80;99.90
52381;DHT22;38310;52.796;6.942;2022-12-29T14:16:42;8.90;99.90
52381;DHT22;38310;52.796;6.942;2022-12-29T14:21:55;8.80;99.90
52381;DHT22;38310;52.796;6.942;2022-12-29T14:27:51;8.80;99.90
52381;DHT22;38310;52.796;6.942;2022-12-29T14:29:50;8.80;99.90
52381;DHT22;38310;52.796;6.942;2022-12-29T14:34:57;8.80;99.90
52381;DHT22;38310;52.796;6.942;2022-12-29T14:42:38;8.90;99.90
52381;DHT22;38310;52.796;6.942;2022-12-29T14:45:26;8.90;99.90
52381;DHT22;38310;52.796;6.942;2022-12-29T14:47:53;8.90;99.90
52381;DHT22;38310;52.796;6.942;2022-12-29T14:50:35;8.90;99.90
52381;DHT22;38310;52.796;6.942;2022-12-29T14:53:05;8.90;99.90
52381;DHT22;38310;52.796;6.942;2022-12-29T14:55:46;8.90;99.90
52381;DHT22;38310;52.796;6.942;2022-12-29T14:58:36;8.90;99.90
52381;DHT22;38310;52.796;6.942;2022-12-29T15:01:14;9.00;99.90
52381;DHT22;38310;52.796;6.942;2022-12-29T15:03:48;9.00;99.90
52381;DHT22;38310;52.796;6.942;2022-12-29T15:06:18;9.00;99.90
52381;DHT22;38310;52.796;6.942;2022-12-29T15:11:52;8.90;99.90
52381;DHT22;38310;52.796;6.942;2022-12-29T15:14:51;9.00;99.90
52381;DHT22;38310;52.796;6.942;2022-12-29T15:17:32;9.00;99.90
52381;DHT22;38310;52.796;6.942;2022-12-29T15:20:02;9.00;99.90
52381;DHT22;38310;52.796;6.942;2022-12-29T15:22:48;9.00;99.90
52381;DHT22;38310;52.796;6.942;2022-12-29T15:25:17;9.00;99.90
52381;DHT22;38310;52.796;6.942;2022-12-29T15:27:51;9.00;99.90
52381;DHT22;38310;52.796;6.942;2022-12-29T15:30:18;9.00;99.90
52381;DHT22;38310;52.796;6.942;2022-12-29T15:32:45;9.00;99.90
52381;DHT22;38310;52.796;6.942;2022-12-29T15:35:30;9.00;99.90
52381;DHT22;38310;52.796;6.942;2022-12-29T15:37:57;9.00;99.90
52381;DHT22;38310;52.796;6.942;2022-12-29T15:40:27;9.00;99.90
52381;DHT22;38310;52.796;6.942;2022-12-29T15:45:35;8.90;99.90
52381;DHT22;38310;52.796;6.942;2022-12-29T15:48:01;9.00;99.90
52381;DHT22;38310;52.796;6.942;2022-12-29T15:50:30;8.90;99.90
52381;DHT22;38310;52.796;6.942;2022-12-29T15:52:58;9.00;99.90
52381;DHT22;38310;52.796;6.942;2022-12-29T15:55:29;8.90;99.90
52381;DHT22;38310;52.796;6.942;2022-12-29T15:57:57;8.90;99.90
52381;DHT22;38310;52.796;6.942;2022-12-29T16:02:53;8.80;99.90
52381;DHT22;38310;52.796;6.942;2022-12-29T16:05:19;8.70;99.90
52381;DHT22;38310;52.796;6.942;2022-12-29T16:07:53;8.80;99.90
52381;DHT22;38310;52.796;6.942;2022-12-29T16:13:15;8.80;99.90
52381;DHT22;38310;52.796;6.942;2022-12-29T16:15:47;8.80;99.90
52381;DHT22;38310;52.796;6.942;2022-12-29T16:18:24;8.70;99.90
52381;DHT22;38310;52.796;6.942;2022-12-29T16:20:52;8.70;99.90
52381;DHT22;38310;52.796;6.942;2022-12-29T16:23:22;8.70;99.90
52381;DHT22;38310;52.796;6.942;2022-12-29T16:25:48;8.60;99.90
52381;DHT22;38310;52.796;6.942;2022-12-29T16:28:22;8.60;99.90
52381;DHT22;38310;52.796;6.942;2022-12-29T16:31:05;8.60;99.90
52381;DHT22;38310;52.796;6.942;2022-12-29T16:36:33;8.50;99.90
52381;DHT22;38310;52.796;6.942;2022-12-29T16:39:26;8.50;99.90
52381;DHT22;38310;52.796;6.942;2022-12-29T16:41:54;8.50;99.90
52381;DHT22;38310;52.796;6.942;2022-12-29T16:44:26;8.50;99.90
52381;DHT22;38310;52.796;6.942;2022-12-29T16:49:22;8.60;99.90
52381;DHT22;38310;52.796;6.942;2022-12-29T16:51:48;8.50;99.90
52381;DHT22;38310;52.796;6.942;2022-12-29T16:54:21;8.60;99.90
52381;DHT22;38310;52.796;6.942;2022-12-29T16:56:48;8.50;99.90
52381;DHT22;38310;52.796;6.942;2022-12-29T16:59:22;8.50;99.90
52381;DHT22;38310;52.796;6.942;2022-12-29T17:01:51;8.50;99.90
52381;DHT22;38310;52.796;6.942;2022-12-29T17:04:16;8.50;99.90
52381;DHT22;38310;52.796;6.942;2022-12-29T17:06:42;8.50;99.90
52381;DHT22;38310;52.796;6.942;2022-12-29T17:09:26;8.50;99.90
52381;DHT22;38310;52.796;6.942;2022-12-29T17:11:57;8.50;99.90
52381;DHT22;38310;52.796;6.942;2022-12-29T17:14:32;8.50;99.90
52381;DHT22;38310;52.796;6.942;2022-12-29T17:16:59;8.50;99.90
52381;DHT22;38310;52.796;6.942;2022-12-29T17:19:36;8.40;99.90
52381;DHT22;38310;52.796;6.942;2022-12-29T17:22:09;8.40;99.90
52381;DHT22;38310;52.796;6.942;2022-12-29T17:24:34;8.40;99.90
52381;DHT22;38310;52.796;6.942;2022-12-29T17:27:01;8.30;99.90
52381;DHT22;38310;52.796;6.942;2022-12-29T17:29:38;8.30;99.90
52381;DHT22;38310;52.796;6.942;2022-12-29T17:32:09;8.30;99.90
52381;DHT22;38310;52.796;6.942;2022-12-29T17:34:35;8.20;99.90
52381;DHT22;38310;52.796;6.942;2022-12-29T17:37:01;8.30;99.90
52381;DHT22;38310;52.796;6.942;2022-12-29T17:39:27;8.20;99.90
52381;DHT22;38310;52.796;6.942;2022-12-29T17:41:53;8.30;99.90
52381;DHT22;38310;52.796;6.942;2022-12-29T17:44:20;8.30;99.90
52381;DHT22;38310;52.796;6.942;2022-12-29T17:46:47;8.40;99.90
52381;DHT22;38310;52.796;6.942;2022-12-29T17:49:15;8.40;99.90
52381;DHT22;38310;52.796;6.942;2022-12-29T17:51:43;8.40;99.90
52381;DHT22;38310;52.796;6.942;2022-12-29T17:54:27;8.30;99.90
52381;DHT22;38310;52.796;6.942;2022-12-29T17:56:53;7.30;99.90
52381;DHT22;38310;52.796;6.942;2022-12-29T17:59:19;9.40;99.90
52381;DHT22;38310;52.796;6.942;2022-12-29T18:01:45;8.40;99.90
52381;DHT22;38310;52.796;6.942;2022-12-29T18:04:19;8.30;99.90
52381;DHT22;38310;52.796;6.942;2022-12-29T18:06:45;8.30;99.90
52381;DHT22;38310;52.796;6.942;2022-12-29T18:09:12;8.30;99.90
52381;DHT22;38310;52.796;6.942;2022-12-29T18:11:42;9.40;99.90
52381;DHT22;38310;52.796;6.942;2022-12-29T18:14:12;8.20;99.90
52381;DHT22;38310;52.796;6.942;2022-12-29T18:16:38;8.10;99.90
52381;DHT22;38310;52.796;6.942;2022-12-29T18:19:04;8.00;99.90
52381;DHT22;38310;52.796;6.942;2022-12-29T18:21:30;7.90;99.90